Time;durP1;ratioP1;P1;durP2;ratioP2;P2;SDS_P1;SDS_P2;PMS_P1;PMS_P2;Temp;Humidity;BMP_temperature;BMP_pressure;BME280_temperature;BME280_humidity;BME280_pressure;Samples;Min_cycle;Max_cycle;Signal;HPM_P1;HPM_P2
2023/10/04 00:02:49;;;;;;;3.40;3.30;;;;;;;;;;6027421;29;20221;-94
2023/10/04 00:05:51;;;;;;;3.53;3.42;;;;;;;;;;6022362;29;20053;-94
2023/10/04 00:08:53;;;;;;;3.40;3.30;;;;;;;;;;6019188;29;20048;-94
2023/10/04 00:11:55;;;;;;;3.55;3.38;;;;;;;;;;6008527;29;20053;-94
2023/10/04 00:14:57;;;;;;;3.10;3.00;;;;;;;;;;6023013;29;20085;-94
2023/10/04 00:17:59;;;;;;;3.47;3.38;;;;;;;;;;6027698;29;20412;-93
2023/10/04 00:21:03;;;;;;;3.42;3.28;;;;;;;;;;6021290;29;20428;-94
2023/10/04 00:24:05;;;;;;;3.20;3.10;;;;;;;;;;6029780;29;20041;-95
2023/10/04 00:27:07;;;;;;;4.20;3.88;;;;;;;;;;6013905;29;20505;-95
2023/10/04 00:30:11;;;;;;;3.50;3.40;;;;;;;;;;6027354;29;20123;-93
2023/10/04 00:33:12;;;;;;;4.13;3.92;;;;;;;;;;6031092;29;20507;-94
2023/10/04 00:36:20;;;;;;;3.70;3.60;;;;;;;;;;6023211;29;20059;-94
2023/10/04 00:39:22;;;;;;;3.42;3.25;;;;;;;;;;6028564;29;20056;-93
2023/10/04 00:42:24;;;;;;;11.70;4.00;;;;;;;;;;6013730;29;20097;-94
2023/10/04 00:45:27;;;;;;;3.35;3.25;;;;;;;;;;6021137;29;20662;-95
2023/10/04 00:48:34;;;;;;;4.05;3.95;;;;;;;;;;6019422;29;20037;-93
2023/10/04 00:51:36;;;;;;;4.68;3.58;;;;;;;;;;6039097;29;20053;-96
2023/10/04 00:54:40;;;;;;;5.30;3.40;;;;;;;;;;6022743;29;20464;-94
2023/10/04 00:57:41;;;;;;;3.90;3.70;;;;;;;;;;6037680;29;20147;-94
2023/10/04 01:00:45;;;;;;;3.92;3.83;;;;;;;;;;6018490;29;20041;-95
2023/10/04 01:03:47;;;;;;;4.15;4.00;;;;;;;;;;6033649;29;20374;-94
2023/10/04 01:06:50;;;;;;;3.58;3.47;;;;;;;;;;6023815;29;20569;-94
2023/10/04 01:09:52;;;;;;;4.05;3.88;;;;;;;;;;6018343;29;20534;-94
2023/10/04 01:12:55;;;;;;;3.97;3.88;;;;;;;;;;6025021;29;20046;-94
2023/10/04 01:15:57;;;;;;;3.00;2.90;;;;;;;;;;6040111;29;20037;-94
2023/10/04 01:18:59;;;;;;;3.30;3.20;;;;;;;;;;6029583;29;20081;-95
2023/10/04 01:22:03;;;;;;;3.40;3.30;;;;;;;;;;6031500;29;20104;-93
2023/10/04 01:25:08;;;;;;;3.25;3.13;;;;;;;;;;6012569;29;20501;-95
2023/10/04 01:28:13;;;;;;;3.13;3.03;;;;;;;;;;6027371;29;20045;-95
2023/10/04 01:31:15;;;;;;;3.90;3.78;;;;;;;;;;6036395;29;20049;-94
2023/10/04 01:34:17;;;;;;;3.20;3.10;;;;;;;;;;6027777;29;20097;-94
2023/10/04 01:37:19;;;;;;;3.90;3.70;;;;;;;;;;6038978;29;20493;-93
2023/10/04 01:40:30;;;;;;;3.40;3.30;;;;;;;;;;6038588;29;20527;-94
2023/10/04 01:43:31;;;;;;;3.20;3.10;;;;;;;;;;6035681;29;20057;-95
2023/10/04 01:46:33;;;;;;;4.25;4.05;;;;;;;;;;6025953;29;20048;-94
2023/10/04 01:49:35;;;;;;;3.17;3.08;;;;;;;;;;6021505;29;20469;-95
2023/10/04 01:52:40;;;;;;;3.40;3.30;;;;;;;;;;6020440;29;20057;-94
2023/10/04 01:55:43;;;;;;;3.53;3.42;;;;;;;;;;6036417;29;20771;-94
2023/10/04 01:58:48;;;;;;;3.40;3.30;;;;;;;;;;6027480;29;20052;-94
2023/10/04 02:01:50;;;;;;;4.22;3.15;;;;;;;;;;6054276;29;20041;-94
2023/10/04 02:04:53;;;;;;;3.40;3.30;;;;;;;;;;6020706;29;20041;-93
2023/10/04 02:07:57;;;;;;;3.33;3.22;;;;;;;;;;6023994;29;20540;-95
2023/10/04 02:10:59;;;;;;;3.30;3.20;;;;;;;;;;6029649;29;20053;-94
2023/10/04 02:14:01;;;;;;;3.90;3.65;;;;;;;;;;6033115;29;20440;-93
2023/10/04 02:17:08;;;;;;;3.35;3.25;;;;;;;;;;6025210;29;20177;-95
2023/10/04 02:20:13;;;;;;;3.83;3.60;;;;;;;;;;6035789;29;20049;-94
2023/10/04 02:23:15;;;;;;;3.63;3.50;;;;;;;;;;6023361;29;20049;-91
2023/10/04 02:26:17;;;;;;;3.55;3.45;;;;;;;;;;6040308;29;20484;-93
2023/10/04 02:29:19;;;;;;;3.60;3.50;;;;;;;;;;6012041;29;20496;-95
2023/10/04 02:32:22;;;;;;;3.85;3.75;;;;;;;;;;6011910;29;20034;-95
2023/10/04 02:38:26;;;;;;;3.97;3.88;;;;;;;;;;6021556;29;20088;-94
2023/10/04 02:41:28;;;;;;;3.55;3.45;;;;;;;;;;6024670;29;20085;-95
2023/10/04 02:44:30;;;;;;;3.55;3.30;;;;;;;;;;6030613;29;20056;-95
2023/10/04 02:47:33;;;;;;;3.80;3.70;;;;;;;;;;6024867;29;20060;-95
2023/10/04 02:50:34;;;;;;;3.72;3.63;;;;;;;;;;6025143;29;20883;-94
2023/10/04 02:53:40;;;;;;;3.55;3.35;;;;;;;;;;6023542;29;20049;-93
2023/10/04 02:56:46;;;;;;;3.22;3.13;;;;;;;;;;6034857;29;20505;-94
2023/10/04 02:59:48;;;;;;;3.58;3.47;;;;;;;;;;6024948;29;20052;-93
2023/10/04 03:02:50;;;;;;;3.20;3.10;;;;;;;;;;6028627;29;20050;-93
2023/10/04 03:05:54;;;;;;;3.75;3.65;;;;;;;;;;6024831;29;20159;-93
2023/10/04 03:08:57;;;;;;;4.03;3.85;;;;;;;;;;6010562;29;20416;-94
2023/10/04 03:12:00;;;;;;;3.45;3.35;;;;;;;;;;6039691;29;20045;-94
2023/10/04 03:15:02;;;;;;;3.20;3.10;;;;;;;;;;6021497;29;20042;-93
2023/10/04 03:18:13;;;;;;;3.65;3.55;;;;;;;;;;6020761;29;20060;-93
2023/10/04 03:21:20;;;;;;;3.45;3.35;;;;;;;;;;6019863;29;20134;-94
2023/10/04 03:24:22;;;;;;;3.55;3.45;;;;;;;;;;6007521;29;20530;-94
2023/10/04 03:27:26;;;;;;;4.18;4.05;;;;;;;;;;6026229;29;20051;-94
2023/10/04 03:30:28;;;;;;;3.20;3.10;;;;;;;;;;6034485;29;20049;-93
2023/10/04 03:33:37;;;;;;;3.55;3.45;;;;;;;;;;6010779;29;20060;-93
2023/10/04 03:36:46;;;;;;;3.95;3.85;;;;;;;;;;6021568;29;20065;-94
2023/10/04 03:39:48;;;;;;;3.90;3.80;;;;;;;;;;6023211;29;20060;-94
2023/10/04 03:42:51;;;;;;;4.05;3.95;;;;;;;;;;6025650;29;20532;-94
2023/10/04 03:45:54;;;;;;;3.63;3.53;;;;;;;;;;6022662;29;20185;-94
2023/10/04 03:48:58;;;;;;;3.25;3.15;;;;;;;;;;6022154;29;20041;-93
2023/10/04 03:52:02;;;;;;;3.80;3.70;;;;;;;;;;6019164;29;20049;-94
2023/10/04 03:55:10;;;;;;;3.38;3.28;;;;;;;;;;6015095;29;20177;-94
2023/10/04 03:58:12;;;;;;;3.08;2.97;;;;;;;;;;6033414;29;20042;-94
2023/10/04 04:01:14;;;;;;;3.63;3.53;;;;;;;;;;6015953;29;20321;-94
2023/10/04 04:04:17;;;;;;;7.50;4.35;;;;;;;;;;6023039;29;20121;-95
2023/10/04 04:07:20;;;;;;;3.30;3.20;;;;;;;;;;6037713;29;20064;-94
2023/10/04 04:10:23;;;;;;;3.88;3.78;;;;;;;;;;6023949;29;20069;-94
2023/10/04 04:13:27;;;;;;;3.67;3.55;;;;;;;;;;6031320;29;20040;-93
2023/10/04 04:16:29;;;;;;;3.97;3.88;;;;;;;;;;6036704;29;20049;-92
2023/10/04 04:19:31;;;;;;;3.20;3.10;;;;;;;;;;6024478;29;20100;-92
2023/10/04 04:22:34;;;;;;;3.45;3.35;;;;;;;;;;6019957;29;20064;-93
2023/10/04 04:25:38;;;;;;;4.43;3.42;;;;;;;;;;6007208;29;20054;-95
2023/10/04 04:28:41;;;;;;;2.88;2.78;;;;;;;;;;6015767;29;20053;-93
2023/10/04 04:31:47;;;;;;;3.20;3.10;;;;;;;;;;6017800;29;20464;-92
2023/10/04 04:34:50;;;;;;;3.08;2.97;;;;;;;;;;6014910;29;20444;-93
2023/10/04 04:37:54;;;;;;;5.75;4.07;;;;;;;;;;6000900;29;20069;-92
2023/10/04 04:40:57;;;;;;;3.75;3.65;;;;;;;;;;6022602;29;20053;-93
2023/10/04 04:44:07;;;;;;;3.63;3.53;;;;;;;;;;6022463;29;20053;-92
2023/10/04 04:47:11;;;;;;;3.00;2.90;;;;;;;;;;6020787;29;20105;-94
2023/10/04 04:50:16;;;;;;;3.78;3.67;;;;;;;;;;6024673;29;20132;-93
2023/10/04 04:53:21;;;;;;;3.75;3.65;;;;;;;;;;6025365;29;20409;-94
2023/10/04 04:56:24;;;;;;;3.42;3.33;;;;;;;;;;6023446;29;20136;-94
2023/10/04 04:59:31;;;;;;;3.00;2.90;;;;;;;;;;6020300;29;20541;-93
2023/10/04 05:02:33;;;;;;;3.90;3.72;;;;;;;;;;6023613;29;20563;-93
2023/10/04 05:05:36;;;;;;;3.47;3.38;;;;;;;;;;6028088;29;20150;-93
2023/10/04 05:08:38;;;;;;;4.40;4.05;;;;;;;;;;6032683;29;20505;-93
2023/10/04 05:11:41;;;;;;;3.58;3.47;;;;;;;;;;6033625;29;20041;-92
2023/10/04 05:14:43;;;;;;;3.63;3.53;;;;;;;;;;6028280;29;20053;-93
2023/10/04 05:17:45;;;;;;;3.47;3.38;;;;;;;;;;6026571;29;20053;-93
2023/10/04 05:20:55;;;;;;;3.50;3.40;;;;;;;;;;6027415;29;20536;-93
2023/10/04 05:23:57;;;;;;;3.30;3.20;;;;;;;;;;6028480;29;20072;-95
2023/10/04 05:26:59;;;;;;;3.45;3.35;;;;;;;;;;6017384;29;20046;-92
2023/10/04 05:30:02;;;;;;;9.02;3.65;;;;;;;;;;6027245;29;20053;-93
2023/10/04 05:33:06;;;;;;;3.53;3.42;;;;;;;;;;6008993;29;20523;-93
2023/10/04 05:36:08;;;;;;;3.60;3.50;;;;;;;;;;6020931;29;20042;-93
2023/10/04 05:39:14;;;;;;;3.95;3.72;;;;;;;;;;6041015;29;20046;-91
2023/10/04 05:42:17;;;;;;;3.33;3.22;;;;;;;;;;6033866;29;20532;-93
2023/10/04 05:45:19;;;;;;;3.88;3.67;;;;;;;;;;6040248;29;20072;-92
2023/10/04 05:48:21;;;;;;;3.92;3.72;;;;;;;;;;6035925;29;20050;-92
2023/10/04 05:51:24;;;;;;;3.67;3.58;;;;;;;;;;6024127;29;20056;-93
2023/10/04 05:54:27;;;;;;;3.33;3.22;;;;;;;;;;6018526;29;20045;-92
2023/10/04 05:57:29;;;;;;;3.60;3.50;;;;;;;;;;6022402;29;20049;-92
2023/10/04 06:00:33;;;;;;;3.40;3.30;;;;;;;;;;6030577;29;20072;-91
2023/10/04 06:03:35;;;;;;;3.10;3.00;;;;;;;;;;6023020;29;20050;-92
2023/10/04 06:06:39;;;;;;;3.42;3.33;;;;;;;;;;6028307;29;20057;-93
2023/10/04 06:09:45;;;;;;;3.50;3.40;;;;;;;;;;6032255;29;20064;-92
2023/10/04 06:12:47;;;;;;;3.33;3.22;;;;;;;;;;6027276;29;20181;-93
2023/10/04 06:15:50;;;;;;;3.03;2.92;;;;;;;;;;6020583;29;20045;-92
2023/10/04 06:18:52;;;;;;;3.40;3.30;;;;;;;;;;6025080;29;20045;-91
2023/10/04 06:21:54;;;;;;;3.10;3.00;;;;;;;;;;6017840;29;20064;-92
2023/10/04 06:24:56;;;;;;;3.33;3.22;;;;;;;;;;6024675;29;20266;-93
2023/10/04 06:27:59;;;;;;;3.30;3.20;;;;;;;;;;6051973;29;20045;-93
2023/10/04 06:31:03;;;;;;;3.20;3.10;;;;;;;;;;6026488;29;20059;-92
2023/10/04 06:34:05;;;;;;;3.90;3.70;;;;;;;;;;6022774;29;20084;-92
2023/10/04 06:37:07;;;;;;;3.63;3.53;;;;;;;;;;6026414;29;20049;-92
2023/10/04 06:40:15;;;;;;;3.92;3.72;;;;;;;;;;6023985;29;20050;-92
2023/10/04 06:43:18;;;;;;;3.50;3.40;;;;;;;;;;6020158;29;20057;-93
2023/10/04 06:46:20;;;;;;;3.83;3.72;;;;;;;;;;6022103;29;20045;-91
2023/10/04 06:49:23;;;;;;;4.05;3.83;;;;;;;;;;6024618;29;20041;-92
2023/10/04 06:52:25;;;;;;;3.65;3.55;;;;;;;;;;6026732;29;20053;-92
2023/10/04 06:55:26;;;;;;;3.28;3.17;;;;;;;;;;6006537;29;20056;-92
2023/10/04 06:58:28;;;;;;;3.58;3.47;;;;;;;;;;6024905;29;20049;-91
2023/10/04 07:01:31;;;;;;;3.50;3.40;;;;;;;;;;6029705;29;20045;-93
2023/10/04 07:04:33;;;;;;;3.50;3.40;;;;;;;;;;6035451;29;20311;-91
2023/10/04 07:07:36;;;;;;;3.38;3.28;;;;;;;;;;6015110;29;20412;-91
2023/10/04 07:10:38;;;;;;;3.78;3.42;;;;;;;;;;6022474;29;20054;-91
2023/10/04 07:13:40;;;;;;;3.70;3.60;;;;;;;;;;6024219;29;20493;-90
2023/10/04 07:16:42;;;;;;;3.30;3.20;;;;;;;;;;6008136;29;20045;-91
2023/10/04 07:19:44;;;;;;;3.42;3.33;;;;;;;;;;6022435;29;20041;-92
2023/10/04 07:22:52;;;;;;;3.75;3.65;;;;;;;;;;6019037;29;20050;-91
2023/10/04 07:25:54;;;;;;;3.72;3.63;;;;;;;;;;6021994;29;20045;-91
2023/10/04 07:28:58;;;;;;;3.25;3.15;;;;;;;;;;6024961;29;20050;-91
2023/10/04 07:32:00;;;;;;;4.60;4.50;;;;;;;;;;6025338;29;20105;-90
2023/10/04 07:35:03;;;;;;;4.43;4.32;;;;;;;;;;6014950;29;20072;-90
2023/10/04 07:38:05;;;;;;;3.53;3.33;;;;;;;;;;6019277;29;20045;-91
2023/10/04 07:41:08;;;;;;;3.45;3.35;;;;;;;;;;6016475;29;20440;-93
2023/10/04 07:44:10;;;;;;;3.20;3.10;;;;;;;;;;6019564;29;20128;-91
2023/10/04 07:47:12;;;;;;;3.15;3.05;;;;;;;;;;6026862;29;20078;-92
2023/10/04 07:50:15;;;;;;;3.55;3.45;;;;;;;;;;6031999;29;20041;-91
2023/10/04 07:53:21;;;;;;;3.40;3.30;;;;;;;;;;6030115;29;20044;-91
2023/10/04 07:56:23;;;;;;;3.83;3.72;;;;;;;;;;6047096;29;20053;-92
2023/10/04 07:59:26;;;;;;;4.05;3.95;;;;;;;;;;6035028;29;20426;-92
2023/10/04 08:02:28;;;;;;;3.95;3.83;;;;;;;;;;6034321;29;20124;-90
2023/10/04 08:05:31;;;;;;;3.45;3.33;;;;;;;;;;6018746;29;20052;-92
2023/10/04 08:08:33;;;;;;;3.25;3.15;;;;;;;;;;6023915;29;20116;-91
2023/10/04 08:11:35;;;;;;;3.40;3.30;;;;;;;;;;6028993;29;20066;-90
2023/10/04 08:14:37;;;;;;;3.88;3.78;;;;;;;;;;6026438;29;20061;-89
2023/10/04 08:17:48;;;;;;;6.60;4.00;;;;;;;;;;6019370;29;20045;-91
2023/10/04 08:20:50;;;;;;;3.63;3.53;;;;;;;;;;6021697;29;20044;-91
2023/10/04 08:23:51;;;;;;;3.58;3.47;;;;;;;;;;6005554;29;20084;-91
2023/10/04 08:26:53;;;;;;;3.58;3.47;;;;;;;;;;6016315;29;20066;-93
2023/10/04 08:29:59;;;;;;;3.58;3.47;;;;;;;;;;6020027;29;20049;-92
2023/10/04 08:33:03;;;;;;;3.95;3.75;;;;;;;;;;6020006;29;20041;-90
2023/10/04 08:36:10;;;;;;;4.22;4.03;;;;;;;;;;6019878;29;20633;-92
2023/10/04 08:39:13;;;;;;;5.32;3.70;;;;;;;;;;6025632;29;20493;-93
2023/10/04 08:42:16;;;;;;;4.45;4.25;;;;;;;;;;6034050;29;20053;-90
2023/10/04 08:45:18;;;;;;;4.32;4.13;;;;;;;;;;6023872;29;20045;-92
2023/10/04 08:48:21;;;;;;;3.65;3.55;;;;;;;;;;6034753;29;20052;-91
2023/10/04 08:51:43;;;;;;;4.40;4.20;;;;;;;;;;6035011;29;20057;-90
2023/10/04 08:54:50;;;;;;;3.83;3.63;;;;;;;;;;5983783;29;20497;-92
2023/10/04 08:57:53;;;;;;;3.60;3.50;;;;;;;;;;5984055;29;20062;-90
2023/10/04 09:00:55;;;;;;;4.05;3.95;;;;;;;;;;5980905;29;20150;-90
2023/10/04 09:03:59;;;;;;;3.40;3.30;;;;;;;;;;5971266;29;20560;-90
2023/10/04 09:07:02;;;;;;;3.55;3.45;;;;;;;;;;5965545;29;20058;-92
2023/10/04 09:10:05;;;;;;;3.35;3.25;;;;;;;;;;5987018;29;20054;-91
2023/10/04 09:13:09;;;;;;;3.90;3.80;;;;;;;;;;5983077;29;20170;-91
2023/10/04 09:16:28;;;;;;;3.47;3.38;;;;;;;;;;5982504;29;20070;-92
2023/10/04 09:19:30;;;;;;;3.70;3.60;;;;;;;;;;5980396;29;20578;-91
2023/10/04 09:22:37;;;;;;;3.33;3.22;;;;;;;;;;5984069;29;20053;-92
2023/10/04 09:25:40;;;;;;;3.65;3.55;;;;;;;;;;5989955;29;20062;-91
2023/10/04 09:28:42;;;;;;;4.13;4.03;;;;;;;;;;5989756;29;20053;-91
2023/10/04 09:31:55;;;;;;;3.88;3.75;;;;;;;;;;6007232;29;20250;-91
2023/10/04 09:34:57;;;;;;;4.63;4.25;;;;;;;;;;6031745;29;20124;-91
2023/10/04 09:38:12;;;;;;;4.03;3.83;;;;;;;;;;6033720;29;20041;-90
2023/10/04 09:41:14;;;;;;;4.72;4.43;;;;;;;;;;6034095;29;20197;-91
2023/10/04 09:44:23;;;;;;;3.80;3.70;;;;;;;;;;6032912;29;20467;-90
2023/10/04 09:47:36;;;;;;;3.42;3.33;;;;;;;;;;6025720;29;20050;-90
2023/10/04 09:50:39;;;;;;;3.28;3.17;;;;;;;;;;6027916;29;20625;-92
2023/10/04 09:53:41;;;;;;;4.15;3.78;;;;;;;;;;6028150;29;20049;-91
2023/10/04 09:56:43;;;;;;;3.05;2.95;;;;;;;;;;6028250;29;20053;-90
2023/10/04 09:59:49;;;;;;;3.10;3.00;;;;;;;;;;6027229;29;20104;-91
2023/10/04 10:02:58;;;;;;;3.50;3.40;;;;;;;;;;6018254;29;20398;-91
2023/10/04 10:06:00;;;;;;;3.30;3.20;;;;;;;;;;6027801;29;20058;-91
2023/10/04 10:09:05;;;;;;;3.25;3.15;;;;;;;;;;6033746;29;20050;-90
2023/10/04 10:12:07;;;;;;;3.35;3.25;;;;;;;;;;6026841;29;20038;-89
2023/10/04 10:15:11;;;;;;;3.42;3.33;;;;;;;;;;6026759;29;20508;-93
2023/10/04 10:18:15;;;;;;;3.00;2.90;;;;;;;;;;6020953;29;20506;-89
2023/10/04 10:21:16;;;;;;;3.35;3.25;;;;;;;;;;6020209;29;20054;-90
2023/10/04 10:24:18;;;;;;;3.63;3.53;;;;;;;;;;6024951;29;20382;-90
2023/10/04 10:27:22;;;;;;;3.63;3.33;;;;;;;;;;6043350;29;20045;-93
2023/10/04 10:30:36;;;;;;;3.53;3.42;;;;;;;;;;6025326;29;20049;-90
2023/10/04 10:33:38;;;;;;;3.58;3.47;;;;;;;;;;6030529;29;20450;-89
2023/10/04 10:36:40;;;;;;;3.95;3.65;;;;;;;;;;6027070;29;20124;-90
2023/10/04 10:39:45;;;;;;;3.67;3.58;;;;;;;;;;6029846;29;20041;-90
2023/10/04 10:43:07;;;;;;;5.32;3.55;;;;;;;;;;6025922;29;20049;-89
2023/10/04 10:46:31;;;;;;;3.25;3.15;;;;;;;;;;6038321;29;20045;-89
2023/10/04 10:49:49;;;;;;;3.10;3.00;;;;;;;;;;6014192;29;20529;-90
2023/10/04 10:53:02;;;;;;;3.42;3.33;;;;;;;;;;6024370;29;20097;-89
2023/10/04 10:56:05;;;;;;;5.13;3.88;;;;;;;;;;6022002;29;20155;-89
2023/10/04 10:59:07;;;;;;;3.45;3.35;;;;;;;;;;6020416;29;20054;-90
2023/10/04 11:02:09;;;;;;;3.08;2.97;;;;;;;;;;6019041;29;20500;-92
2023/10/04 11:05:12;;;;;;;3.53;3.42;;;;;;;;;;6021629;29;20078;-90
2023/10/04 11:08:15;;;;;;;3.22;3.13;;;;;;;;;;6004879;29;20591;-91
2023/10/04 11:11:17;;;;;;;3.38;3.28;;;;;;;;;;6025835;29;20386;-91
2023/10/04 11:14:22;;;;;;;3.15;3.05;;;;;;;;;;6023303;29;20049;-88
2023/10/04 11:17:24;;;;;;;3.53;3.33;;;;;;;;;;6026431;29;20508;-89
2023/10/04 11:20:36;;;;;;;3.17;3.08;;;;;;;;;;6022646;29;20053;-88
2023/10/04 11:23:38;;;;;;;2.90;2.80;;;;;;;;;;6018603;29;20121;-88
2023/10/04 11:26:40;;;;;;;3.50;3.30;;;;;;;;;;6022203;29;20073;-88
2023/10/04 11:29:43;;;;;;;2.92;2.83;;;;;;;;;;6021516;29;20054;-88
2023/10/04 11:32:46;;;;;;;3.00;2.90;;;;;;;;;;6028054;29;20097;-89
2023/10/04 11:35:48;;;;;;;3.10;3.00;;;;;;;;;;6027733;29;20052;-89
2023/10/04 11:38:50;;;;;;;3.78;3.58;;;;;;;;;;6031597;29;20155;-87
2023/10/04 11:41:52;;;;;;;3.30;3.20;;;;;;;;;;6029741;29;20048;-90
2023/10/04 11:44:54;;;;;;;4.10;3.90;;;;;;;;;;6024737;29;20581;-88
2023/10/04 11:47:56;;;;;;;3.80;3.17;;;;;;;;;;6020943;29;20058;-88
2023/10/04 11:50:59;;;;;;;3.63;3.53;;;;;;;;;;6029053;29;20048;-88
2023/10/04 11:54:02;;;;;;;3.05;2.95;;;;;;;;;;6028965;29;20050;-89
2023/10/04 11:57:05;;;;;;;2.72;2.72;;;;;;;;;;6030611;29;20041;-88
2023/10/04 12:00:18;;;;;;;3.20;3.10;;;;;;;;;;6019777;29;20423;-88
2023/10/04 12:03:19;;;;;;;2.90;2.85;;;;;;;;;;6029080;29;20050;-88
2023/10/04 12:06:22;;;;;;;2.88;2.78;;;;;;;;;;6020450;29;20489;-88
2023/10/04 12:09:24;;;;;;;3.00;2.80;;;;;;;;;;6030016;29;20041;-88
2023/10/04 12:12:26;;;;;;;2.50;2.45;;;;;;;;;;6023686;29;20053;-89
2023/10/04 12:15:29;;;;;;;2.65;2.65;;;;;;;;;;6021539;29;20041;-88
2023/10/04 12:18:31;;;;;;;3.25;2.67;;;;;;;;;;6017023;29;20050;-87
2023/10/04 12:21:34;;;;;;;2.75;2.65;;;;;;;;;;6026238;29;20052;-89
2023/10/04 12:24:36;;;;;;;3.08;2.78;;;;;;;;;;6026404;29;20057;-88
2023/10/04 12:27:38;;;;;;;2.83;2.75;;;;;;;;;;6024754;29;20057;-88
2023/10/04 12:30:41;;;;;;;2.75;2.55;;;;;;;;;;6025952;29;20084;-88
2023/10/04 12:33:43;;;;;;;3.05;2.95;;;;;;;;;;6019022;29;20065;-88
2023/10/04 12:36:46;;;;;;;2.67;2.67;;;;;;;;;;6026293;29;20049;-87
2023/10/04 12:39:56;;;;;;;2.65;2.55;;;;;;;;;;6019396;29;20492;-87
2023/10/04 12:42:58;;;;;;;3.28;3.00;;;;;;;;;;6023226;29;20053;-88
2023/10/04 12:46:00;;;;;;;2.60;2.60;;;;;;;;;;6020260;29;20042;-88
2023/10/04 12:49:03;;;;;;;3.10;2.83;;;;;;;;;;6033245;29;20507;-88
2023/10/04 12:52:06;;;;;;;3.63;3.40;;;;;;;;;;6019515;29;20442;-88
2023/10/04 12:55:11;;;;;;;8.38;3.30;;;;;;;;;;6027713;29;20170;-88
2023/10/04 12:58:13;;;;;;;2.85;2.78;;;;;;;;;;6023583;29;20042;-88
2023/10/04 13:01:18;;;;;;;2.83;2.72;;;;;;;;;;6037205;29;20446;-87
2023/10/04 13:04:21;;;;;;;3.08;2.97;;;;;;;;;;6025082;29;21012;-88
2023/10/04 13:07:23;;;;;;;2.97;2.88;;;;;;;;;;6031808;29;20048;-89
2023/10/04 13:10:25;;;;;;;3.50;3.30;;;;;;;;;;6014275;29;20493;-88
2023/10/04 13:13:28;;;;;;;2.42;2.42;;;;;;;;;;6018639;29;20041;-88
2023/10/04 13:16:31;;;;;;;2.30;2.30;;;;;;;;;;6020524;29;20037;-88
2023/10/04 13:19:33;;;;;;;3.00;2.90;;;;;;;;;;6023384;29;20515;-88
2023/10/04 13:22:35;;;;;;;2.40;2.40;;;;;;;;;;6028989;29;20079;-88
2023/10/04 13:25:38;;;;;;;2.45;2.45;;;;;;;;;;6024186;29;20144;-88
2023/10/04 13:28:39;;;;;;;2.28;2.28;;;;;;;;;;6023697;29;20061;-87
2023/10/04 13:31:42;;;;;;;2.50;2.50;;;;;;;;;;6018109;29;20087;-87
2023/10/04 13:34:44;;;;;;;2.95;2.80;;;;;;;;;;6027501;29;20084;-88
2023/10/04 13:37:58;;;;;;;2.70;2.70;;;;;;;;;;6020674;29;20080;-88
2023/10/04 13:41:00;;;;;;;4.38;3.05;;;;;;;;;;6021140;29;20560;-88
2023/10/04 13:44:04;;;;;;;3.38;3.28;;;;;;;;;;6026018;29;20496;-88
2023/10/04 13:47:08;;;;;;;2.38;2.38;;;;;;;;;;6028724;29;20451;-89
2023/10/04 13:50:09;;;;;;;2.50;2.50;;;;;;;;;;6021711;29;20056;-88
2023/10/04 13:53:11;;;;;;;3.40;3.30;;;;;;;;;;6022800;29;20033;-88
2023/10/04 13:56:13;;;;;;;3.30;3.13;;;;;;;;;;6029642;29;20078;-88
2023/10/04 13:59:15;;;;;;;3.92;3.10;;;;;;;;;;6020235;29;20049;-88
2023/10/04 14:02:19;;;;;;;2.72;2.72;;;;;;;;;;6020614;29;20170;-88
2023/10/04 14:05:21;;;;;;;3.13;2.92;;;;;;;;;;6018881;29;20049;-88
2023/10/04 14:08:24;;;;;;;3.45;3.35;;;;;;;;;;6022425;29;20295;-88
2023/10/04 14:11:26;;;;;;;3.38;3.28;;;;;;;;;;6022121;29;20042;-88
2023/10/04 14:14:28;;;;;;;3.55;3.45;;;;;;;;;;6015725;29;20226;-87
2023/10/04 14:17:29;;;;;;;2.92;2.83;;;;;;;;;;6022598;29;20041;-88
2023/10/04 14:20:33;;;;;;;2.55;2.53;;;;;;;;;;6024578;29;20046;-88
2023/10/04 14:23:37;;;;;;;12.80;2.80;;;;;;;;;;6017571;29;20524;-88
2023/10/04 14:26:40;;;;;;;3.25;3.15;;;;;;;;;;6023190;29;20050;-89
2023/10/04 14:29:42;;;;;;;3.45;3.35;;;;;;;;;;6024848;29;20373;-88
2023/10/04 14:32:51;;;;;;;2.63;2.63;;;;;;;;;;6023183;29;20488;-88
2023/10/04 14:35:53;;;;;;;6.32;3.05;;;;;;;;;;6021179;29;20505;-88
2023/10/04 14:38:56;;;;;;;3.13;3.03;;;;;;;;;;6019373;29;20058;-88
2023/10/04 14:41:58;;;;;;;2.88;2.75;;;;;;;;;;6018915;29;20559;-89
2023/10/04 14:45:03;;;;;;;3.00;2.90;;;;;;;;;;6016302;29;20197;-88
2023/10/04 14:48:06;;;;;;;3.47;3.38;;;;;;;;;;6021129;29;20072;-88
2023/10/04 14:51:07;;;;;;;3.38;3.08;;;;;;;;;;6018700;29;20045;-88
2023/10/04 14:54:14;;;;;;;3.33;3.22;;;;;;;;;;6028710;29;20041;-88
2023/10/04 14:57:16;;;;;;;3.38;3.28;;;;;;;;;;6022491;29;20101;-88
2023/10/04 15:00:20;;;;;;;3.88;3.78;;;;;;;;;;6033484;29;20037;-88
2023/10/04 15:03:23;;;;;;;4.13;3.92;;;;;;;;;;6021217;29;20062;-88
2023/10/04 15:06:29;;;;;;;2.80;2.70;;;;;;;;;;6032885;29;20049;-88
2023/10/04 15:09:32;;;;;;;2.80;2.70;;;;;;;;;;6019538;29;20080;-89
2023/10/04 15:12:34;;;;;;;2.90;2.80;;;;;;;;;;6024558;29;20057;-88
2023/10/04 15:15:36;;;;;;;2.47;2.47;;;;;;;;;;6020137;29;20104;-88
2023/10/04 15:18:38;;;;;;;3.10;3.00;;;;;;;;;;6020395;29;20038;-89
2023/10/04 15:21:41;;;;;;;3.00;2.90;;;;;;;;;;6027097;29;20049;-88
2023/10/04 15:24:43;;;;;;;3.35;2.97;;;;;;;;;;6023137;29;20048;-88
2023/10/04 15:27:55;;;;;;;3.20;3.10;;;;;;;;;;6024305;29;20050;-88
2023/10/04 15:31:01;;;;;;;4.15;4.05;;;;;;;;;;6030529;29;20492;-88
2023/10/04 15:34:03;;;;;;;3.88;3.67;;;;;;;;;;6021910;29;20050;-88
2023/10/04 15:37:05;;;;;;;3.17;3.08;;;;;;;;;;6011774;29;20097;-88
2023/10/04 15:40:13;;;;;;;2.67;2.67;;;;;;;;;;6039333;29;20116;-88
2023/10/04 15:43:17;;;;;;;2.88;2.78;;;;;;;;;;6007187;29;20045;-88
2023/10/04 15:46:20;;;;;;;3.50;3.40;;;;;;;;;;6024410;29;20045;-88
2023/10/04 15:49:22;;;;;;;2.70;2.70;;;;;;;;;;6024461;29;20041;-88
2023/10/04 15:52:24;;;;;;;2.97;2.88;;;;;;;;;;6024855;29;20052;-88
2023/10/04 15:55:26;;;;;;;2.88;2.80;;;;;;;;;;6027274;29;20117;-88
2023/10/04 15:58:28;;;;;;;2.70;2.65;;;;;;;;;;6016933;29;20129;-88
2023/10/04 16:01:30;;;;;;;3.80;3.70;;;;;;;;;;6017226;29;20065;-87
2023/10/04 16:04:32;;;;;;;3.35;3.25;;;;;;;;;;6022753;29;20053;-88
2023/10/04 16:07:34;;;;;;;4.38;3.20;;;;;;;;;;6033365;29;20052;-88
2023/10/04 16:10:39;;;;;;;4.18;3.88;;;;;;;;;;6020738;29;20556;-88
2023/10/04 16:13:40;;;;;;;2.72;2.72;;;;;;;;;;6020572;29;20453;-88
2023/10/04 16:16:43;;;;;;;2.85;2.75;;;;;;;;;;6017973;29;20041;-87
2023/10/04 16:19:45;;;;;;;2.47;2.47;;;;;;;;;;6027660;29;20113;-88
2023/10/04 16:22:59;;;;;;;3.05;2.95;;;;;;;;;;6022882;29;20045;-88
2023/10/04 16:26:04;;;;;;;2.88;2.70;;;;;;;;;;6029850;29;20543;-88
2023/10/04 16:29:06;;;;;;;2.55;2.55;;;;;;;;;;6036071;29;20054;-88
2023/10/04 16:32:08;;;;;;;3.05;2.75;;;;;;;;;;6024054;29;20038;-88
2023/10/04 16:35:13;;;;;;;2.72;2.70;;;;;;;;;;6021518;29;20101;-88
2023/10/04 16:38:15;;;;;;;4.15;3.95;;;;;;;;;;6037040;29;20041;-88
2023/10/04 16:41:17;;;;;;;3.15;3.05;;;;;;;;;;6014188;29;20050;-88
2023/10/04 16:44:19;;;;;;;2.90;2.83;;;;;;;;;;6018162;29;20056;-88
2023/10/04 16:47:21;;;;;;;3.38;3.28;;;;;;;;;;6043737;29;20041;-88
2023/10/04 16:50:23;;;;;;;3.55;3.45;;;;;;;;;;6015952;29;20048;-88
2023/10/04 16:53:25;;;;;;;2.65;2.65;;;;;;;;;;6021580;29;20045;-88
2023/10/04 16:56:27;;;;;;;3.40;3.30;;;;;;;;;;6014048;29;20037;-88
2023/10/04 16:59:29;;;;;;;3.15;2.97;;;;;;;;;;6022076;29;20387;-88
2023/10/04 17:02:31;;;;;;;3.53;2.78;;;;;;;;;;6028264;29;20049;-88
2023/10/04 17:05:33;;;;;;;2.90;2.80;;;;;;;;;;6021104;29;20046;-88
2023/10/04 17:08:35;;;;;;;3.22;3.13;;;;;;;;;;6027598;29;20472;-88
2023/10/04 17:11:37;;;;;;;2.85;2.75;;;;;;;;;;6023046;29;20398;-88
2023/10/04 17:14:39;;;;;;;2.97;2.88;;;;;;;;;;6024249;29;20296;-88
2023/10/04 17:17:41;;;;;;;3.35;3.25;;;;;;;;;;6027353;29;20053;-88
2023/10/04 17:20:43;;;;;;;4.07;3.20;;;;;;;;;;6027820;29;20049;-87
2023/10/04 17:23:45;;;;;;;2.97;2.88;;;;;;;;;;6022922;29;20468;-88
2023/10/04 17:26:52;;;;;;;4.00;3.90;;;;;;;;;;6021048;29;20057;-88
2023/10/04 17:29:54;;;;;;;2.80;2.78;;;;;;;;;;6024367;29;20552;-88
2023/10/04 17:32:55;;;;;;;3.15;3.05;;;;;;;;;;6013982;29;20197;-88
2023/10/04 17:35:58;;;;;;;3.53;3.22;;;;;;;;;;6021749;29;20061;-88
2023/10/04 17:39:00;;;;;;;3.25;2.85;;;;;;;;;;6031311;29;20041;-88
2023/10/04 17:42:02;;;;;;;4.82;4.55;;;;;;;;;;6022951;29;20196;-88
2023/10/04 17:45:10;;;;;;;3.10;2.85;;;;;;;;;;6025298;29;20052;-88
2023/10/04 17:48:12;;;;;;;3.35;3.25;;;;;;;;;;6025027;29;20436;-88
2023/10/04 17:51:14;;;;;;;3.15;3.05;;;;;;;;;;6023990;29;20187;-87
2023/10/04 17:54:18;;;;;;;3.30;3.00;;;;;;;;;;6021160;29;20113;-87
2023/10/04 17:57:22;;;;;;;3.20;3.10;;;;;;;;;;6029144;29;20233;-88
2023/10/04 18:00:24;;;;;;;3.20;3.05;;;;;;;;;;6025453;29;20170;-88
2023/10/04 18:03:25;;;;;;;2.75;2.70;;;;;;;;;;6024255;29;20048;-88
2023/10/04 18:06:27;;;;;;;8.68;3.10;;;;;;;;;;6021512;29;20056;-88
2023/10/04 18:09:29;;;;;;;3.35;3.25;;;;;;;;;;6026282;29;20042;-88
2023/10/04 18:12:32;;;;;;;3.08;2.97;;;;;;;;;;6031319;29;20509;-88
2023/10/04 18:15:34;;;;;;;2.35;2.35;;;;;;;;;;6024489;29;20049;-87
2023/10/04 18:18:37;;;;;;;2.78;2.63;;;;;;;;;;6021798;29;20053;-88
2023/10/04 18:21:39;;;;;;;2.58;2.58;;;;;;;;;;6027624;29;20124;-87
2023/10/04 18:24:42;;;;;;;3.00;2.90;;;;;;;;;;6021250;29;20422;-87